sensor_id;sensor_type;location;lat;lon;timestamp;pressure;altitude;pressure_sealevel;temperature;humidity
48636;BME280;34429;52.332;5.614;2022-10-03T00:02:24;102492.09;;;10.03;100.00
48636;BME280;34429;52.332;5.614;2022-10-03T00:05:13;102489.97;;;9.94;100.00
48636;BME280;34429;52.332;5.614;2022-10-03T00:08:03;102491.69;;;9.95;100.00
48636;BME280;34429;52.332;5.614;2022-10-03T00:10:45;102495.06;;;9.98;100.00
48636;BME280;34429;52.332;5.614;2022-10-03T00:13:23;102499.56;;;9.84;100.00
48636;BME280;34429;52.332;5.614;2022-10-03T00:16:08;102499.66;;;9.82;100.00
48636;BME280;34429;52.332;5.614;2022-10-03T00:18:51;102504.84;;;9.85;100.00
48636;BME280;34429;52.332;5.614;2022-10-03T00:21:38;102503.00;;;9.86;100.00
48636;BME280;34429;52.332;5.614;2022-10-03T00:24:20;102505.44;;;9.74;100.00
48636;BME280;34429;52.332;5.614;2022-10-03T00:26:55;102506.63;;;9.70;100.00
48636;BME280;34429;52.332;5.614;2022-10-03T00:29:46;102508.22;;;9.73;100.00
48636;BME280;34429;52.332;5.614;2022-10-03T00:32:36;102516.38;;;9.71;100.00
48636;BME280;34429;52.332;5.614;2022-10-03T00:35:29;102514.69;;;9.70;100.00
48636;BME280;34429;52.332;5.614;2022-10-03T00:38:23;102523.69;;;9.69;100.00
48636;BME280;34429;52.332;5.614;2022-10-03T00:41:10;102519.16;;;9.70;100.00
48636;BME280;34429;52.332;5.614;2022-10-03T00:44:05;102521.19;;;9.66;100.00
48636;BME280;34429;52.332;5.614;2022-10-03T00:46:57;102527.31;;;9.68;100.00
48636;BME280;34429;52.332;5.614;2022-10-03T00:49:51;102512.78;;;9.56;100.00
48636;BME280;34429;52.332;5.614;2022-10-03T00:52:37;102520.84;;;9.56;100.00
48636;BME280;34429;52.332;5.614;2022-10-03T00:55:17;102520.75;;;9.58;100.00
48636;BME280;34429;52.332;5.614;2022-10-03T00:57:59;102524.47;;;9.55;100.00
48636;BME280;34429;52.332;5.614;2022-10-03T01:00:32;102527.06;;;9.57;100.00
48636;BME280;34429;52.332;5.614;2022-10-03T01:03:22;102537.06;;;9.55;100.00
48636;BME280;34429;52.332;5.614;2022-10-03T01:06:03;102534.47;;;9.53;100.00
48636;BME280;34429;52.332;5.614;2022-10-03T01:09:11;102536.19;;;9.54;100.00
48636;BME280;34429;52.332;5.614;2022-10-03T01:11:56;102543.38;;;9.54;100.00
48636;BME280;34429;52.332;5.614;2022-10-03T01:14:46;102547.13;;;9.51;100.00
48636;BME280;34429;52.332;5.614;2022-10-03T01:17:26;102537.31;;;9.50;100.00
48636;BME280;34429;52.332;5.614;2022-10-03T01:23:18;102551.97;;;9.44;100.00
48636;BME280;34429;52.332;5.614;2022-10-03T01:26:00;102559.84;;;9.47;100.00
48636;BME280;34429;52.332;5.614;2022-10-03T01:28:47;102553.09;;;9.40;100.00
48636;BME280;34429;52.332;5.614;2022-10-03T01:31:33;102553.38;;;9.36;100.00
48636;BME280;34429;52.332;5.614;2022-10-03T01:34:11;102555.59;;;9.27;100.00
48636;BME280;34429;52.332;5.614;2022-10-03T01:36:50;102557.53;;;9.25;100.00
48636;BME280;34429;52.332;5.614;2022-10-03T01:39:25;102557.44;;;9.27;100.00
48636;BME280;34429;52.332;5.614;2022-10-03T01:41:58;102561.69;;;9.31;100.00
48636;BME280;34429;52.332;5.614;2022-10-03T01:44:40;102553.09;;;9.24;100.00
48636;BME280;34429;52.332;5.614;2022-10-03T01:47:23;102569.47;;;9.20;100.00
48636;BME280;34429;52.332;5.614;2022-10-03T01:49:59;102576.94;;;9.15;100.00
48636;BME280;34429;52.332;5.614;2022-10-03T01:52:37;102567.91;;;9.16;100.00
48636;BME280;34429;52.332;5.614;2022-10-03T01:55:14;102564.00;;;9.21;100.00
48636;BME280;34429;52.332;5.614;2022-10-03T01:57:52;102560.75;;;9.32;100.00
48636;BME280;34429;52.332;5.614;2022-10-03T02:00:30;102561.06;;;9.26;100.00
48636;BME280;34429;52.332;5.614;2022-10-03T02:03:07;102563.59;;;9.29;100.00
48636;BME280;34429;52.332;5.614;2022-10-03T02:05:44;102568.09;;;9.28;100.00
48636;BME280;34429;52.332;5.614;2022-10-03T02:08:27;102567.41;;;9.25;100.00
48636;BME280;34429;52.332;5.614;2022-10-03T02:11:01;102566.69;;;9.21;100.00
48636;BME280;34429;52.332;5.614;2022-10-03T02:13:41;102577.34;;;9.23;100.00
48636;BME280;34429;52.332;5.614;2022-10-03T02:16:19;102572.94;;;9.22;100.00
48636;BME280;34429;52.332;5.614;2022-10-03T02:18:58;102573.13;;;9.19;100.00
48636;BME280;34429;52.332;5.614;2022-10-03T02:21:32;102572.50;;;9.14;100.00
48636;BME280;34429;52.332;5.614;2022-10-03T02:24:23;102575.69;;;9.04;100.00
48636;BME280;34429;52.332;5.614;2022-10-03T02:30:12;102571.78;;;8.94;100.00
48636;BME280;34429;52.332;5.614;2022-10-03T02:33:30;102568.91;;;8.97;100.00
48636;BME280;34429;52.332;5.614;2022-10-03T02:39:27;102573.56;;;8.93;100.00
48636;BME280;34429;52.332;5.614;2022-10-03T02:45:33;102569.09;;;8.94;100.00
48636;BME280;34429;52.332;5.614;2022-10-03T02:54:58;102569.44;;;8.88;100.00
48636;BME280;34429;52.332;5.614;2022-10-03T03:01:12;102577.03;;;8.80;100.00
48636;BME280;34429;52.332;5.614;2022-10-03T03:04:05;102578.03;;;8.77;100.00
48636;BME280;34429;52.332;5.614;2022-10-03T03:07:13;102577.19;;;8.76;100.00
48636;BME280;34429;52.332;5.614;2022-10-03T03:10:37;102581.75;;;8.74;100.00
48636;BME280;34429;52.332;5.614;2022-10-03T03:13:44;102588.19;;;8.72;100.00
48636;BME280;34429;52.332;5.614;2022-10-03T03:16:41;102597.84;;;8.74;100.00
48636;BME280;34429;52.332;5.614;2022-10-03T03:19:36;102596.84;;;8.77;100.00
48636;BME280;34429;52.332;5.614;2022-10-03T03:22:20;102599.09;;;8.85;100.00
48636;BME280;34429;52.332;5.614;2022-10-03T03:25:04;102600.94;;;8.84;100.00
48636;BME280;34429;52.332;5.614;2022-10-03T03:27:49;102602.13;;;8.79;100.00
48636;BME280;34429;52.332;5.614;2022-10-03T03:30:25;102606.41;;;8.65;100.00
48636;BME280;34429;52.332;5.614;2022-10-03T03:33:06;102601.03;;;8.65;100.00
48636;BME280;34429;52.332;5.614;2022-10-03T03:35:47;102601.19;;;8.62;100.00
48636;BME280;34429;52.332;5.614;2022-10-03T03:38:29;102603.41;;;8.71;100.00
48636;BME280;34429;52.332;5.614;2022-10-03T03:41:17;102606.88;;;8.73;100.00
48636;BME280;34429;52.332;5.614;2022-10-03T03:47:02;102595.34;;;8.71;100.00
48636;BME280;34429;52.332;5.614;2022-10-03T03:49:48;102606.41;;;8.65;100.00
48636;BME280;34429;52.332;5.614;2022-10-03T03:52:31;102601.97;;;8.64;100.00
48636;BME280;34429;52.332;5.614;2022-10-03T03:55:28;102606.06;;;8.71;100.00
48636;BME280;34429;52.332;5.614;2022-10-03T03:58:17;102602.69;;;8.68;100.00
48636;BME280;34429;52.332;5.614;2022-10-03T04:01:16;102595.84;;;8.62;100.00
48636;BME280;34429;52.332;5.614;2022-10-03T04:03:58;102594.91;;;8.63;100.00
48636;BME280;34429;52.332;5.614;2022-10-03T04:06:38;102602.22;;;8.59;100.00
48636;BME280;34429;52.332;5.614;2022-10-03T04:09:47;102600.59;;;8.57;100.00
48636;BME280;34429;52.332;5.614;2022-10-03T04:12:36;102600.34;;;8.62;100.00
48636;BME280;34429;52.332;5.614;2022-10-03T04:15:24;102596.00;;;8.59;100.00
48636;BME280;34429;52.332;5.614;2022-10-03T04:18:10;102600.59;;;8.57;100.00
48636;BME280;34429;52.332;5.614;2022-10-03T04:21:06;102600.97;;;8.49;100.00
48636;BME280;34429;52.332;5.614;2022-10-03T04:23:54;102591.91;;;8.52;100.00
48636;BME280;34429;52.332;5.614;2022-10-03T04:26:35;102600.09;;;8.49;100.00
48636;BME280;34429;52.332;5.614;2022-10-03T04:29:40;102596.50;;;8.50;100.00
48636;BME280;34429;52.332;5.614;2022-10-03T04:35:20;102598.03;;;8.36;100.00
48636;BME280;34429;52.332;5.614;2022-10-03T04:37:56;102600.88;;;8.33;100.00
48636;BME280;34429;52.332;5.614;2022-10-03T04:40:42;102602.44;;;8.37;100.00
48636;BME280;34429;52.332;5.614;2022-10-03T04:43:14;102600.72;;;8.36;100.00
48636;BME280;34429;52.332;5.614;2022-10-03T04:46:07;102604.34;;;8.35;100.00
48636;BME280;34429;52.332;5.614;2022-10-03T04:48:45;102614.13;;;8.36;100.00
48636;BME280;34429;52.332;5.614;2022-10-03T04:51:28;102622.03;;;8.39;100.00
48636;BME280;34429;52.332;5.614;2022-10-03T04:54:08;102619.25;;;8.41;100.00
48636;BME280;34429;52.332;5.614;2022-10-03T04:56:49;102627.09;;;8.46;100.00
48636;BME280;34429;52.332;5.614;2022-10-03T04:59:43;102628.84;;;8.47;100.00
48636;BME280;34429;52.332;5.614;2022-10-03T05:02:26;102620.13;;;8.41;100.00
48636;BME280;34429;52.332;5.614;2022-10-03T05:05:07;102635.47;;;8.57;100.00
48636;BME280;34429;52.332;5.614;2022-10-03T05:07:46;102634.50;;;8.58;100.00
48636;BME280;34429;52.332;5.614;2022-10-03T05:10:41;102638.31;;;8.54;100.00
48636;BME280;34429;52.332;5.614;2022-10-03T05:13:15;102630.56;;;8.48;100.00
48636;BME280;34429;52.332;5.614;2022-10-03T05:15:54;102629.03;;;8.42;100.00
48636;BME280;34429;52.332;5.614;2022-10-03T05:18:33;102632.47;;;8.46;100.00
48636;BME280;34429;52.332;5.614;2022-10-03T05:21:09;102627.31;;;8.41;100.00
48636;BME280;34429;52.332;5.614;2022-10-03T05:23:50;102631.53;;;8.47;100.00
48636;BME280;34429;52.332;5.614;2022-10-03T05:26:37;102629.47;;;8.52;100.00
48636;BME280;34429;52.332;5.614;2022-10-03T05:29:14;102637.84;;;8.46;100.00
48636;BME280;34429;52.332;5.614;2022-10-03T05:31:54;102628.69;;;8.50;100.00
48636;BME280;34429;52.332;5.614;2022-10-03T05:34:37;102631.47;;;8.48;100.00
48636;BME280;34429;52.332;5.614;2022-10-03T05:37:28;102633.53;;;8.41;100.00
48636;BME280;34429;52.332;5.614;2022-10-03T05:40:02;102635.28;;;8.42;100.00
48636;BME280;34429;52.332;5.614;2022-10-03T05:42:38;102637.31;;;8.37;100.00
48636;BME280;34429;52.332;5.614;2022-10-03T05:45:22;102634.78;;;8.34;100.00
48636;BME280;34429;52.332;5.614;2022-10-03T05:48:08;102639.84;;;8.40;100.00
48636;BME280;34429;52.332;5.614;2022-10-03T05:50:55;102633.78;;;8.37;100.00
48636;BME280;34429;52.332;5.614;2022-10-03T05:53:58;102644.34;;;8.40;100.00
48636;BME280;34429;52.332;5.614;2022-10-03T05:56:46;102646.81;;;8.45;100.00
48636;BME280;34429;52.332;5.614;2022-10-03T05:59:27;102644.97;;;8.47;100.00
48636;BME280;34429;52.332;5.614;2022-10-03T06:05:26;102645.38;;;8.37;100.00
48636;BME280;34429;52.332;5.614;2022-10-03T06:08:14;102656.38;;;8.50;100.00
48636;BME280;34429;52.332;5.614;2022-10-03T06:10:49;102660.41;;;8.59;100.00
48636;BME280;34429;52.332;5.614;2022-10-03T06:13:26;102664.38;;;8.69;100.00
48636;BME280;34429;52.332;5.614;2022-10-03T06:16:10;102654.03;;;8.62;100.00
48636;BME280;34429;52.332;5.614;2022-10-03T06:19:13;102661.84;;;8.66;100.00
48636;BME280;34429;52.332;5.614;2022-10-03T06:25:23;102659.31;;;8.63;100.00
48636;BME280;34429;52.332;5.614;2022-10-03T06:28:19;102669.00;;;8.83;100.00
48636;BME280;34429;52.332;5.614;2022-10-03T06:31:20;102657.31;;;9.02;100.00
48636;BME280;34429;52.332;5.614;2022-10-03T06:34:28;102666.72;;;9.26;100.00
48636;BME280;34429;52.332;5.614;2022-10-03T06:37:23;102665.25;;;9.21;100.00
48636;BME280;34429;52.332;5.614;2022-10-03T06:40:34;102666.81;;;9.25;100.00
48636;BME280;34429;52.332;5.614;2022-10-03T06:43:47;102669.84;;;9.35;100.00
48636;BME280;34429;52.332;5.614;2022-10-03T06:46:48;102669.00;;;9.34;100.00
48636;BME280;34429;52.332;5.614;2022-10-03T06:58:53;102672.00;;;9.93;100.00
48636;BME280;34429;52.332;5.614;2022-10-03T07:01:53;102680.69;;;10.14;100.00
48636;BME280;34429;52.332;5.614;2022-10-03T07:10:39;102676.44;;;10.87;100.00
48636;BME280;34429;52.332;5.614;2022-10-03T07:13:49;102679.25;;;11.14;100.00
48636;BME280;34429;52.332;5.614;2022-10-03T07:19:27;102682.91;;;11.42;100.00
48636;BME280;34429;52.332;5.614;2022-10-03T07:25:24;102687.34;;;11.72;100.00
48636;BME280;34429;52.332;5.614;2022-10-03T07:28:22;102685.94;;;11.79;100.00
48636;BME280;34429;52.332;5.614;2022-10-03T07:31:01;102685.75;;;11.97;100.00
48636;BME280;34429;52.332;5.614;2022-10-03T07:36:49;102691.94;;;11.99;100.00
48636;BME280;34429;52.332;5.614;2022-10-03T07:39:54;102691.13;;;12.11;100.00
48636;BME280;34429;52.332;5.614;2022-10-03T07:42:38;102691.47;;;12.19;100.00
48636;BME280;34429;52.332;5.614;2022-10-03T07:45:33;102699.91;;;12.27;100.00
48636;BME280;34429;52.332;5.614;2022-10-03T07:48:22;102700.44;;;12.47;100.00
48636;BME280;34429;52.332;5.614;2022-10-03T07:51:11;102701.47;;;12.32;100.00
48636;BME280;34429;52.332;5.614;2022-10-03T08:00:07;102695.69;;;12.51;100.00
48636;BME280;34429;52.332;5.614;2022-10-03T08:05:53;102708.06;;;12.68;100.00
48636;BME280;34429;52.332;5.614;2022-10-03T08:08:45;102706.47;;;12.78;100.00
48636;BME280;34429;52.332;5.614;2022-10-03T08:14:31;102701.81;;;13.06;100.00
48636;BME280;34429;52.332;5.614;2022-10-03T08:17:19;102701.81;;;13.06;100.00
48636;BME280;34429;52.332;5.614;2022-10-03T08:20:10;102707.69;;;13.25;100.00
48636;BME280;34429;52.332;5.614;2022-10-03T08:22:58;102705.66;;;13.42;100.00
48636;BME280;34429;52.332;5.614;2022-10-03T08:25:44;102713.44;;;13.59;100.00
48636;BME280;34429;52.332;5.614;2022-10-03T08:28:40;102721.81;;;13.93;100.00
48636;BME280;34429;52.332;5.614;2022-10-03T08:31:33;102728.13;;;14.18;100.00
48636;BME280;34429;52.332;5.614;2022-10-03T08:34:26;102713.53;;;14.32;100.00
48636;BME280;34429;52.332;5.614;2022-10-03T08:37:03;102727.75;;;14.47;100.00
48636;BME280;34429;52.332;5.614;2022-10-03T08:39:52;102720.44;;;14.60;100.00
48636;BME280;34429;52.332;5.614;2022-10-03T08:42:40;102719.78;;;14.69;100.00
48636;BME280;34429;52.332;5.614;2022-10-03T08:45:49;102722.78;;;14.89;
48636;BME280;34429;52.332;5.614;2022-10-03T08:48:56;102718.34;;;14.88;100.00
48636;BME280;34429;52.332;5.614;2022-10-03T08:51:52;102731.97;;;15.11;100.00
48636;BME280;34429;52.332;5.614;2022-10-03T08:54:47;102723.84;;;15.11;100.00
48636;BME280;34429;52.332;5.614;2022-10-03T08:57:29;102718.59;;;15.43;100.00
48636;BME280;34429;52.332;5.614;2022-10-03T09:00:13;102724.63;;;15.58;100.00
48636;BME280;34429;52.332;5.614;2022-10-03T09:09:10;102727.09;;;15.95;100.00
48636;BME280;34429;52.332;5.614;2022-10-03T09:11:59;102726.25;;;16.38;100.00
48636;BME280;34429;52.332;5.614;2022-10-03T09:14:55;102723.44;;;16.61;100.00
48636;BME280;34429;52.332;5.614;2022-10-03T09:20:58;102722.31;;;16.63;100.00
48636;BME280;34429;52.332;5.614;2022-10-03T09:24:01;102714.53;;;16.91;100.00
48636;BME280;34429;52.332;5.614;2022-10-03T09:36:03;102699.94;;;17.44;100.00
48636;BME280;34429;52.332;5.614;2022-10-03T09:38:54;102699.66;;;17.47;100.00
48636;BME280;34429;52.332;5.614;2022-10-03T09:47:28;102695.69;;;17.21;100.00
48636;BME280;34429;52.332;5.614;2022-10-03T09:59:57;102689.75;;;17.77;100.00
48636;BME280;34429;52.332;5.614;2022-10-03T10:14:26;102685.13;;;17.68;100.00
48636;BME280;34429;52.332;5.614;2022-10-03T10:20:28;102680.22;;;17.93;100.00
48636;BME280;34429;52.332;5.614;2022-10-03T10:23:22;102689.91;;;17.85;100.00
48636;BME280;34429;52.332;5.614;2022-10-03T10:29:10;102685.53;;;17.94;100.00
48636;BME280;34429;52.332;5.614;2022-10-03T10:32:06;102678.66;;;18.00;100.00
48636;BME280;34429;52.332;5.614;2022-10-03T10:35:01;102683.25;;;18.09;100.00
48636;BME280;34429;52.332;5.614;2022-10-03T10:38:17;102679.53;;;18.10;100.00
48636;BME280;34429;52.332;5.614;2022-10-03T10:41:14;102674.66;;;18.43;100.00
48636;BME280;34429;52.332;5.614;2022-10-03T10:50:32;102670.06;;;18.63;100.00
48636;BME280;34429;52.332;5.614;2022-10-03T11:08:49;102666.81;;;19.17;100.00
48636;BME280;34429;52.332;5.614;2022-10-03T11:11:50;102660.84;;;19.69;100.00
48636;BME280;34429;52.332;5.614;2022-10-03T11:18:06;102659.53;;;19.45;100.00
48636;BME280;34429;52.332;5.614;2022-10-03T11:24:24;102665.91;;;18.88;100.00
48636;BME280;34429;52.332;5.614;2022-10-03T11:30:21;102659.56;;;19.35;100.00
48636;BME280;34429;52.332;5.614;2022-10-03T11:36:39;102653.28;;;19.35;100.00
48636;BME280;34429;52.332;5.614;2022-10-03T11:39:18;102659.69;;;19.06;100.00
48636;BME280;34429;52.332;5.614;2022-10-03T11:41:57;102658.56;;;18.99;100.00
48636;BME280;34429;52.332;5.614;2022-10-03T11:44:33;102656.88;;;18.59;100.00
48636;BME280;34429;52.332;5.614;2022-10-03T11:47:18;102660.22;;;19.19;100.00
48636;BME280;34429;52.332;5.614;2022-10-03T11:50:14;102666.44;;;19.02;100.00
48636;BME280;34429;52.332;5.614;2022-10-03T11:52:59;102662.09;;;19.19;100.00
48636;BME280;34429;52.332;5.614;2022-10-03T11:55:39;102664.47;;;18.65;100.00
48636;BME280;34429;52.332;5.614;2022-10-03T11:58:29;102665.88;;;19.08;100.00
48636;BME280;34429;52.332;5.614;2022-10-03T12:01:22;102662.47;;;19.34;100.00
48636;BME280;34429;52.332;5.614;2022-10-03T12:03:59;102665.75;;;19.00;100.00
48636;BME280;34429;52.332;5.614;2022-10-03T12:06:50;102659.44;;;18.89;100.00
48636;BME280;34429;52.332;5.614;2022-10-03T12:09:44;102657.19;;;19.22;100.00
48636;BME280;34429;52.332;5.614;2022-10-03T12:12:19;102652.66;;;19.41;100.00
48636;BME280;34429;52.332;5.614;2022-10-03T12:14:59;102656.00;;;19.63;100.00
48636;BME280;34429;52.332;5.614;2022-10-03T12:17:33;102656.91;;;19.53;100.00
48636;BME280;34429;52.332;5.614;2022-10-03T12:20:05;102657.09;;;19.14;100.00
48636;BME280;34429;52.332;5.614;2022-10-03T12:22:46;102655.47;;;19.77;100.00
48636;BME280;34429;52.332;5.614;2022-10-03T12:25:20;102646.84;;;19.54;100.00
48636;BME280;34429;52.332;5.614;2022-10-03T12:27:56;102648.31;;;19.48;100.00
48636;BME280;34429;52.332;5.614;2022-10-03T12:30:36;102642.25;;;19.54;100.00
48636;BME280;34429;52.332;5.614;2022-10-03T12:33:14;102643.06;;;19.65;100.00
48636;BME280;34429;52.332;5.614;2022-10-03T12:35:51;102638.50;;;19.55;100.00
48636;BME280;34429;52.332;5.614;2022-10-03T12:38:28;102647.09;;;19.60;100.00
48636;BME280;34429;52.332;5.614;2022-10-03T12:41:12;102632.44;;;19.89;100.00
48636;BME280;34429;52.332;5.614;2022-10-03T12:43:54;102626.81;;;19.35;100.00
48636;BME280;34429;52.332;5.614;2022-10-03T12:46:38;102619.25;;;19.19;100.00
48636;BME280;34429;52.332;5.614;2022-10-03T12:49:14;102627.34;;;19.39;100.00
48636;BME280;34429;52.332;5.614;2022-10-03T12:51:53;102625.88;;;19.72;100.00
48636;BME280;34429;52.332;5.614;2022-10-03T12:54:34;102620.13;;;19.48;100.00
48636;BME280;34429;52.332;5.614;2022-10-03T13:00:03;102625.50;;;19.67;100.00
48636;BME280;34429;52.332;5.614;2022-10-03T13:02:39;102621.97;;;20.03;100.00
48636;BME280;34429;52.332;5.614;2022-10-03T13:05:44;102625.13;;;19.80;100.00
48636;BME280;34429;52.332;5.614;2022-10-03T13:08:34;102619.09;;;19.31;100.00
48636;BME280;34429;52.332;5.614;2022-10-03T13:11:20;102622.97;;;18.81;100.00
48636;BME280;34429;52.332;5.614;2022-10-03T13:14:03;102619.06;;;18.93;100.00
48636;BME280;34429;52.332;5.614;2022-10-03T13:16:36;102626.94;;;19.06;100.00
48636;BME280;34429;52.332;5.614;2022-10-03T13:19:15;102622.50;;;19.33;100.00
48636;BME280;34429;52.332;5.614;2022-10-03T13:21:53;102623.31;;;19.43;100.00
48636;BME280;34429;52.332;5.614;2022-10-03T13:24:32;102618.97;;;19.50;100.00
48636;BME280;34429;52.332;5.614;2022-10-03T13:27:10;102612.34;;;19.53;100.00
48636;BME280;34429;52.332;5.614;2022-10-03T13:29:45;102614.31;;;19.33;100.00
48636;BME280;34429;52.332;5.614;2022-10-03T13:32:24;102614.63;;;19.57;100.00
48636;BME280;34429;52.332;5.614;2022-10-03T13:35:02;102608.91;;;19.78;100.00
48636;BME280;34429;52.332;5.614;2022-10-03T13:37:59;102607.03;;;19.23;100.00
48636;BME280;34429;52.332;5.614;2022-10-03T13:40:34;102603.69;;;19.57;100.00
48636;BME280;34429;52.332;5.614;2022-10-03T13:43:10;102604.16;;;19.53;100.00
48636;BME280;34429;52.332;5.614;2022-10-03T13:45:42;102602.84;;;19.29;100.00
48636;BME280;34429;52.332;5.614;2022-10-03T13:48:15;102606.84;;;19.63;100.00
48636;BME280;34429;52.332;5.614;2022-10-03T13:50:53;102595.63;;;19.38;100.00
48636;BME280;34429;52.332;5.614;2022-10-03T13:53:40;102594.88;;;19.64;100.00
48636;BME280;34429;52.332;5.614;2022-10-03T13:56:14;102593.81;;;19.74;100.00
48636;BME280;34429;52.332;5.614;2022-10-03T13:58:54;102586.28;;;19.86;100.00
48636;BME280;34429;52.332;5.614;2022-10-03T14:01:38;102592.78;;;19.75;100.00
48636;BME280;34429;52.332;5.614;2022-10-03T14:04:35;102602.91;;;19.47;100.00
48636;BME280;34429;52.332;5.614;2022-10-03T14:07:14;102599.03;;;19.68;100.00
48636;BME280;34429;52.332;5.614;2022-10-03T14:09:59;102596.44;;;19.20;100.00
48636;BME280;34429;52.332;5.614;2022-10-03T14:12:44;102585.31;;;19.04;100.00
48636;BME280;34429;52.332;5.614;2022-10-03T14:15:25;102585.25;;;19.14;100.00
48636;BME280;34429;52.332;5.614;2022-10-03T14:18:05;102572.97;;;19.00;100.00
48636;BME280;34429;52.332;5.614;2022-10-03T14:21:07;102577.94;;;18.67;100.00
48636;BME280;34429;52.332;5.614;2022-10-03T14:23:36;102573.78;;;19.10;100.00
48636;BME280;34429;52.332;5.614;2022-10-03T14:26:13;102576.59;;;18.81;100.00
48636;BME280;34429;52.332;5.614;2022-10-03T14:28:48;102568.69;;;18.78;100.00
48636;BME280;34429;52.332;5.614;2022-10-03T14:31:23;102555.47;;;18.93;100.00
48636;BME280;34429;52.332;5.614;2022-10-03T14:34:03;102560.91;;;18.93;100.00
48636;BME280;34429;52.332;5.614;2022-10-03T14:36:39;102558.66;;;18.88;100.00
48636;BME280;34429;52.332;5.614;2022-10-03T14:39:34;102556.66;;;18.70;100.00
48636;BME280;34429;52.332;5.614;2022-10-03T14:45:05;102565.50;;;18.25;100.00
48636;BME280;34429;52.332;5.614;2022-10-03T14:47:37;102559.34;;;18.13;100.00
48636;BME280;34429;52.332;5.614;2022-10-03T14:50:13;102557.31;;;18.35;100.00
48636;BME280;34429;52.332;5.614;2022-10-03T14:52:50;102552.75;;;18.26;100.00
48636;BME280;34429;52.332;5.614;2022-10-03T14:55:30;102559.06;;;18.16;100.00
48636;BME280;34429;52.332;5.614;2022-10-03T14:58:00;102561.34;;;17.92;100.00
48636;BME280;34429;52.332;5.614;2022-10-03T15:00:37;102552.84;;;17.75;100.00
48636;BME280;34429;52.332;5.614;2022-10-03T15:03:28;102548.16;;;17.97;100.00
48636;BME280;34429;52.332;5.614;2022-10-03T15:06:01;102553.72;;;17.85;100.00
48636;BME280;34429;52.332;5.614;2022-10-03T15:08:34;102550.34;;;17.93;100.00
48636;BME280;34429;52.332;5.614;2022-10-03T15:11:08;102552.72;;;17.86;100.00
48636;BME280;34429;52.332;5.614;2022-10-03T15:13:41;102546.72;;;17.93;100.00
48636;BME280;34429;52.332;5.614;2022-10-03T15:16:15;102546.44;;;18.06;100.00
48636;BME280;34429;52.332;5.614;2022-10-03T15:18:50;102531.97;;;18.05;100.00
48636;BME280;34429;52.332;5.614;2022-10-03T15:21:20;102523.75;;;17.85;100.00
48636;BME280;34429;52.332;5.614;2022-10-03T15:23:55;102534.25;;;17.80;100.00
48636;BME280;34429;52.332;5.614;2022-10-03T15:26:27;102535.25;;;18.18;100.00
48636;BME280;34429;52.332;5.614;2022-10-03T15:28:57;102532.06;;;18.33;100.00
48636;BME280;34429;52.332;5.614;2022-10-03T15:31:33;102532.34;;;18.39;100.00
48636;BME280;34429;52.332;5.614;2022-10-03T15:34:05;102535.22;;;18.38;100.00
48636;BME280;34429;52.332;5.614;2022-10-03T15:36:37;102534.25;;;18.00;100.00
48636;BME280;34429;52.332;5.614;2022-10-03T15:39:16;102540.41;;;18.21;100.00
48636;BME280;34429;52.332;5.614;2022-10-03T15:41:54;102530.91;;;17.77;100.00
48636;BME280;34429;52.332;5.614;2022-10-03T15:44:27;102531.66;;;17.69;100.00
48636;BME280;34429;52.332;5.614;2022-10-03T15:46:59;102528.06;;;17.68;100.00
48636;BME280;34429;52.332;5.614;2022-10-03T15:49:35;102536.06;;;17.41;100.00
48636;BME280;34429;52.332;5.614;2022-10-03T15:52:12;102526.44;;;17.37;100.00
48636;BME280;34429;52.332;5.614;2022-10-03T15:54:45;102518.88;;;17.40;100.00
48636;BME280;34429;52.332;5.614;2022-10-03T15:57:24;102523.47;;;17.49;100.00
48636;BME280;34429;52.332;5.614;2022-10-03T15:59:56;102517.16;;;17.39;100.00
48636;BME280;34429;52.332;5.614;2022-10-03T16:02:30;102509.53;;;17.33;100.00
48636;BME280;34429;52.332;5.614;2022-10-03T16:05:04;102523.25;;;17.22;100.00
48636;BME280;34429;52.332;5.614;2022-10-03T16:07:38;102520.25;;;17.25;100.00
48636;BME280;34429;52.332;5.614;2022-10-03T16:10:17;102516.47;;;17.06;100.00
48636;BME280;34429;52.332;5.614;2022-10-03T16:13:00;102516.25;;;17.29;100.00
48636;BME280;34429;52.332;5.614;2022-10-03T16:15:50;102512.34;;;17.12;100.00
48636;BME280;34429;52.332;5.614;2022-10-03T16:18:43;102514.72;;;16.95;100.00
48636;BME280;34429;52.332;5.614;2022-10-03T16:21:25;102513.47;;;16.99;100.00
48636;BME280;34429;52.332;5.614;2022-10-03T16:23:58;102523.31;;;16.91;100.00
48636;BME280;34429;52.332;5.614;2022-10-03T16:26:33;102505.25;;;16.90;100.00
48636;BME280;34429;52.332;5.614;2022-10-03T16:29:12;102509.47;;;16.82;100.00
48636;BME280;34429;52.332;5.614;2022-10-03T16:31:49;102511.16;;;16.95;100.00
48636;BME280;34429;52.332;5.614;2022-10-03T16:34:21;102510.03;;;16.76;100.00
48636;BME280;34429;52.332;5.614;2022-10-03T16:36:52;102504.59;;;16.76;100.00
48636;BME280;34429;52.332;5.614;2022-10-03T16:39:23;102499.63;;;16.51;100.00
48636;BME280;34429;52.332;5.614;2022-10-03T16:41:54;102500.81;;;16.37;100.00
48636;BME280;34429;52.332;5.614;2022-10-03T16:44:37;102498.50;;;16.32;100.00
48636;BME280;34429;52.332;5.614;2022-10-03T16:47:08;102500.41;;;16.41;100.00
48636;BME280;34429;52.332;5.614;2022-10-03T16:49:40;102504.31;;;16.49;100.00
48636;BME280;34429;52.332;5.614;2022-10-03T16:52:29;102496.59;;;16.23;100.00
48636;BME280;34429;52.332;5.614;2022-10-03T16:55:00;102493.63;;;16.26;100.00
48636;BME280;34429;52.332;5.614;2022-10-03T16:57:38;102490.13;;;16.14;100.00
48636;BME280;34429;52.332;5.614;2022-10-03T17:00:22;102495.91;;;15.88;100.00